createdAt,value
2023-01-21T00:02:18.491Z,100006.84
2023-01-21T00:04:47.123Z,99996.41
2023-01-21T00:07:13.989Z,99997.53
2023-01-21T00:09:40.957Z,100006.75
2023-01-21T00:12:07.826Z,99993.03
2023-01-21T00:14:34.542Z,99996.50
2023-01-21T00:17:01.581Z,99986.06
2023-01-21T00:19:29.780Z,99997.22
2023-01-21T00:21:56.911Z,99996.25
2023-01-21T00:24:24.654Z,99983.19
2023-01-21T00:26:54.108Z,99977.34
2023-01-21T00:29:32.119Z,99970.69
2023-01-21T00:31:59.166Z,99966.00
2023-01-21T00:34:26.066Z,99970.59
2023-01-21T00:36:55.089Z,99970.59
2023-01-21T00:39:23.623Z,99967.22
2023-01-21T00:41:50.386Z,99974.12
2023-01-21T00:44:17.950Z,99979.00
2023-01-21T00:46:44.740Z,99980.06
2023-01-21T00:49:11.467Z,99976.44
2023-01-21T00:51:38.356Z,99990.44
2023-01-21T00:54:05.187Z,99996.78
2023-01-21T00:56:31.832Z,99981.09
2023-01-21T00:58:58.640Z,99979.44
2023-01-21T01:01:27.934Z,99981.16
2023-01-21T01:03:55.037Z,99974.22
2023-01-21T01:06:22.920Z,99964.56
2023-01-21T01:08:50.101Z,99970.72
2023-01-21T01:11:17.486Z,99969.50
2023-01-21T01:13:44.416Z,99959.88
2023-01-21T01:16:13.143Z,99958.66
2023-01-21T01:18:40.080Z,99960.00
2023-01-21T01:21:07.075Z,99970.66
2023-01-21T01:23:33.906Z,99967.66
2023-01-21T01:26:01.712Z,99953.78
2023-01-21T01:28:28.610Z,99964.41
2023-01-21T01:30:55.653Z,99958.16
2023-01-21T01:33:22.784Z,99956.31
2023-01-21T01:35:49.882Z,99953.88
2023-01-21T01:38:17.548Z,99962.56
2023-01-21T01:40:45.583Z,99957.72
2023-01-21T01:43:18.524Z,99957.56
2023-01-21T01:45:45.804Z,99947.31
2023-01-21T01:48:16.475Z,99958.91
2023-01-21T01:50:43.455Z,99946.88
2023-01-21T01:53:12.228Z,99945.50
2023-01-21T01:55:40.124Z,99937.44
2023-01-21T01:58:09.022Z,99950.34
2023-01-21T02:00:36.028Z,99951.09
2023-01-21T02:03:22.345Z,99961.25
2023-01-21T02:05:49.127Z,99956.59
2023-01-21T02:08:16.013Z,99959.25
2023-01-21T02:10:42.773Z,99950.00
2023-01-21T02:13:10.041Z,99936.81
2023-01-21T02:15:52.393Z,99939.69
2023-01-21T02:18:31.747Z,99943.19
2023-01-21T02:21:37.061Z,99933.53
2023-01-21T02:24:22.862Z,99930.16
2023-01-21T02:27:12.478Z,99920.34
2023-01-21T02:29:58.126Z,99924.66
2023-01-21T02:32:30.139Z,99924.87
2023-01-21T02:35:18.483Z,99923.28
2023-01-21T02:37:55.383Z,99915.69
2023-01-21T02:40:29.557Z,99903.00
2023-01-21T02:43:07.201Z,99907.00
2023-01-21T02:45:37.717Z,99907.72
2023-01-21T02:48:27.997Z,99915.38
2023-01-21T02:50:54.982Z,99920.25
2023-01-21T02:53:29.353Z,99927.19
2023-01-21T02:55:57.818Z,99929.59
2023-01-21T02:58:28.871Z,99942.25
2023-01-21T03:01:11.560Z,99947.31
2023-01-21T03:03:56.308Z,99944.38
2023-01-21T03:06:36.650Z,99947.31
2023-01-21T03:09:03.344Z,99952.19
2023-01-21T03:11:30.143Z,99936.41
2023-01-21T03:14:28.424Z,99947.87
2023-01-21T03:16:58.803Z,99944.62
2023-01-21T03:19:30.560Z,99952.28
2023-01-21T03:21:58.864Z,99954.75
2023-01-21T03:24:26.278Z,99952.53
2023-01-21T03:26:54.378Z,99964.91
2023-01-21T03:29:24.995Z,99970.87
2023-01-21T03:31:55.353Z,99979.50
2023-01-21T03:34:23.911Z,99993.97
2023-01-21T03:36:50.636Z,99999.31
2023-01-21T03:39:36.537Z,99999.50
2023-01-21T03:42:03.684Z,99998.22
2023-01-21T03:44:30.635Z,99998.81
2023-01-21T03:47:04.006Z,99997.28
2023-01-21T03:49:53.367Z,99987.47
2023-01-21T03:52:22.230Z,99984.63
2023-01-21T03:54:49.458Z,99980.34
2023-01-21T03:57:16.239Z,99963.16
2023-01-21T03:59:43.163Z,99957.41
2023-01-21T04:02:10.158Z,99942.53
2023-01-21T04:04:36.925Z,99926.72
2023-01-21T04:07:03.851Z,99911.38
2023-01-21T04:09:30.721Z,99919.59
2023-01-21T04:11:58.663Z,99914.50
2023-01-21T04:14:31.065Z,99914.94
2023-01-21T04:16:57.965Z,99919.88
2023-01-21T04:19:29.329Z,99911.63
2023-01-21T04:21:56.133Z,99898.62
2023-01-21T04:24:22.965Z,99916.72
2023-01-21T04:26:49.795Z,99914.28
2023-01-21T04:29:17.403Z,99909.13
2023-01-21T04:31:44.540Z,99917.09
2023-01-21T04:34:11.348Z,99917.25
2023-01-21T04:36:38.113Z,99900.56
2023-01-21T04:39:04.779Z,99912.72
2023-01-21T04:41:31.502Z,99930.63
2023-01-21T04:43:58.424Z,99918.41
2023-01-21T04:46:25.298Z,99917.69
2023-01-21T04:48:52.664Z,99918.66
2023-01-21T04:51:19.507Z,99919.06
2023-01-21T04:53:46.377Z,99915.47
2023-01-21T04:56:13.666Z,99909.59
2023-01-21T04:58:40.511Z,99914.28
2023-01-21T05:01:07.409Z,99899.63
2023-01-21T05:03:35.856Z,99897.97
2023-01-21T05:06:02.697Z,99900.38
2023-01-21T05:08:29.430Z,99900.91
2023-01-21T05:10:56.596Z,99911.03
2023-01-21T05:13:23.375Z,99900.91
2023-01-21T05:15:50.332Z,99918.94
2023-01-21T05:18:19.218Z,99918.63
2023-01-21T05:20:45.987Z,99909.78
2023-01-21T05:23:12.744Z,99919.41
2023-01-21T05:25:39.549Z,99926.03
2023-01-21T05:28:06.312Z,99932.16
2023-01-21T05:30:33.191Z,99924.53
2023-01-21T05:33:00.047Z,99931.63
2023-01-21T05:35:26.892Z,99944.84
2023-01-21T05:37:53.677Z,99957.31
2023-01-21T05:40:20.637Z,99972.41
2023-01-21T05:42:47.510Z,99974.69
2023-01-21T05:45:14.778Z,99981.62
2023-01-21T05:47:41.600Z,99994.13
2023-01-21T05:50:09.826Z,99997.06
2023-01-21T05:52:36.925Z,99997.19
2023-01-21T05:55:04.700Z,100014.03
2023-01-21T05:57:40.812Z,100008.72
2023-01-21T06:00:08.114Z,100004.56
2023-01-21T06:02:34.940Z,100010.97
2023-01-21T06:05:01.695Z,100003.94
2023-01-21T06:07:28.425Z,100021.16
2023-01-21T06:09:55.147Z,100026.00
2023-01-21T06:12:23.900Z,100026.72
2023-01-21T06:14:51.456Z,100033.44
2023-01-21T06:17:18.138Z,100024.41
2023-01-21T06:19:44.895Z,100036.94
2023-01-21T06:22:18.436Z,100042.12
2023-01-21T06:24:45.311Z,100035.59
2023-01-21T06:27:12.565Z,100046.75
2023-01-21T06:29:39.519Z,100046.38
2023-01-21T06:32:06.565Z,100048.25
2023-01-21T06:34:33.370Z,100056.69
2023-01-21T06:37:00.086Z,100066.81
2023-01-21T06:39:26.817Z,100073.66
2023-01-21T06:41:55.244Z,100076.78
2023-01-21T06:44:22.724Z,100085.38
2023-01-21T06:47:00.114Z,100080.38
2023-01-21T06:49:27.690Z,100070.03
2023-01-21T06:51:54.585Z,100078.34
2023-01-21T06:54:21.396Z,100076.88
2023-01-21T06:56:48.079Z,100082.59
2023-01-21T06:59:14.812Z,100078.66
2023-01-21T07:01:41.605Z,100081.19
2023-01-21T07:04:08.380Z,100082.44
2023-01-21T07:06:35.176Z,100077.25
2023-01-21T07:09:01.870Z,100080.22
2023-01-21T07:11:29.085Z,100086.44
2023-01-21T07:13:55.809Z,100094.72
2023-01-21T07:16:22.635Z,100102.22
2023-01-21T07:18:49.412Z,100117.94
2023-01-21T07:21:16.339Z,100119.91
2023-01-21T07:23:43.114Z,100115.97
2023-01-21T07:26:09.866Z,100110.91
2023-01-21T07:28:36.901Z,100113.00
2023-01-21T07:31:04.429Z,100118.19
2023-01-21T07:33:31.236Z,100122.34
2023-01-21T07:35:58.007Z,100124.09
2023-01-21T07:38:25.929Z,100131.03
2023-01-21T07:40:52.622Z,100131.78
2023-01-21T07:43:19.507Z,100133.25
2023-01-21T07:45:46.397Z,100142.19
2023-01-21T07:48:13.293Z,100145.53
2023-01-21T07:50:40.070Z,100143.97
2023-01-21T07:53:06.922Z,100141.94
2023-01-21T07:55:33.842Z,100151.44
2023-01-21T07:58:00.635Z,100154.56
2023-01-21T08:00:27.379Z,100151.75
2023-01-21T08:02:55.335Z,100149.88
2023-01-21T08:05:23.313Z,100146.50
2023-01-21T08:07:50.420Z,100153.97
2023-01-21T08:10:17.620Z,100158.09
2023-01-21T08:12:44.626Z,100160.22
2023-01-21T08:15:11.772Z,100171.69
2023-01-21T08:17:39.793Z,100164.84
2023-01-21T08:20:08.304Z,100164.41
2023-01-21T08:22:35.096Z,100165.91
2023-01-21T08:25:01.995Z,100150.56
2023-01-21T08:27:28.866Z,100170.13
2023-01-21T08:29:55.862Z,100170.22
2023-01-21T08:32:22.717Z,100175.28
2023-01-21T08:34:50.267Z,100156.56
2023-01-21T08:37:17.211Z,100154.56
2023-01-21T08:39:43.939Z,100148.91
2023-01-21T08:42:10.812Z,100141.63
2023-01-21T08:44:37.631Z,100150.84
2023-01-21T08:47:04.409Z,100142.34
2023-01-21T08:49:32.458Z,100134.03
2023-01-21T08:52:21.006Z,100133.00
2023-01-21T08:54:50.939Z,100144.72
2023-01-21T08:57:17.768Z,100146.84
2023-01-21T08:59:44.478Z,100133.19
2023-01-21T09:02:11.511Z,100133.38
2023-01-21T09:04:38.363Z,100136.63
2023-01-21T09:07:05.108Z,100137.47
2023-01-21T09:09:31.924Z,100147.84
2023-01-21T09:11:58.753Z,100146.50
2023-01-21T09:14:26.540Z,100144.25
2023-01-21T09:16:56.011Z,100144.25
2023-01-21T09:19:24.210Z,100154.50
2023-01-21T09:21:52.734Z,100153.25
2023-01-21T09:24:19.611Z,100144.97
2023-01-21T09:26:46.485Z,100138.63
2023-01-21T09:29:13.419Z,100135.53
2023-01-21T09:31:40.318Z,100144.63
2023-01-21T09:34:07.185Z,100142.72
2023-01-21T09:36:35.094Z,100132.00
2023-01-21T09:39:02.565Z,100127.19
2023-01-21T09:41:37.854Z,100136.47
2023-01-21T09:44:13.091Z,100136.84
2023-01-21T09:46:43.276Z,100141.84
2023-01-21T09:49:15.600Z,100143.50
2023-01-21T09:51:52.369Z,100148.69
2023-01-21T09:54:25.961Z,100147.94
2023-01-21T09:57:00.184Z,100143.91
2023-01-21T09:59:39.245Z,100147.16
2023-01-21T10:02:09.865Z,100144.22
2023-01-21T10:04:59.640Z,100154.81
2023-01-21T10:07:34.463Z,100155.44
2023-01-21T10:10:18.320Z,100152.28
2023-01-21T10:12:54.438Z,100144.22
2023-01-21T10:15:30.074Z,100154.34
2023-01-21T10:17:59.885Z,100156.56
2023-01-21T10:20:29.398Z,100152.37
2023-01-21T10:23:07.675Z,100160.47
2023-01-21T10:25:36.914Z,100144.81
2023-01-21T10:28:23.957Z,100149.50
2023-01-21T10:30:52.268Z,100146.75
2023-01-21T10:33:24.195Z,100160.62
2023-01-21T10:35:57.095Z,100150.94
2023-01-21T10:38:39.010Z,100156.78
2023-01-21T10:41:29.063Z,100177.28
2023-01-21T10:44:06.685Z,100152.41
2023-01-21T10:46:36.452Z,100150.13
2023-01-21T10:49:09.241Z,100154.91
2023-01-21T10:51:54.129Z,100153.66
2023-01-21T10:54:30.072Z,100157.56
2023-01-21T10:57:19.489Z,100160.38
2023-01-21T10:59:46.642Z,100153.53
2023-01-21T11:02:27.881Z,100158.72
2023-01-21T11:04:54.983Z,100163.53
2023-01-21T11:07:22.613Z,100163.59
2023-01-21T11:09:49.533Z,100157.50
2023-01-21T11:12:20.657Z,100158.16
2023-01-21T11:14:54.057Z,100161.63
2023-01-21T11:17:32.375Z,100162.47
2023-01-21T11:20:00.829Z,100149.47
2023-01-21T11:22:29.897Z,100158.25
2023-01-21T11:24:56.684Z,100161.81
2023-01-21T11:27:23.363Z,100160.53
2023-01-21T11:29:50.787Z,100160.31
2023-01-21T11:32:26.046Z,100156.78
2023-01-21T11:34:59.343Z,100161.00
2023-01-21T11:37:30.494Z,100156.72
2023-01-21T11:39:57.317Z,100165.87
2023-01-21T11:42:24.776Z,100154.25
2023-01-21T11:44:57.718Z,100159.22
2023-01-21T11:47:36.292Z,100160.16
2023-01-21T11:50:13.669Z,100157.25
2023-01-21T11:52:41.052Z,100158.03
2023-01-21T11:55:26.369Z,100150.19
2023-01-21T11:57:55.150Z,100163.84
2023-01-21T12:00:27.706Z,100170.59
2023-01-21T12:03:03.348Z,100160.56
2023-01-21T12:05:35.045Z,100164.16
2023-01-21T12:08:03.777Z,100170.59
2023-01-21T12:10:32.573Z,100172.37
2023-01-21T12:13:17.000Z,100174.94
2023-01-21T12:15:43.851Z,100172.25
2023-01-21T12:18:30.264Z,100183.16
2023-01-21T12:21:00.522Z,100179.78
2023-01-21T12:23:37.248Z,100186.81
2023-01-21T12:26:17.820Z,100188.09
2023-01-21T12:29:02.841Z,100193.56
2023-01-21T12:31:43.055Z,100191.53
2023-01-21T12:34:09.882Z,100192.09
2023-01-21T12:36:40.770Z,100193.13
2023-01-21T12:39:13.295Z,100194.75
2023-01-21T12:41:42.523Z,100188.66
2023-01-21T12:44:18.238Z,100200.72
2023-01-21T12:46:48.141Z,100200.66
2023-01-21T12:49:19.602Z,100206.16
2023-01-21T12:51:48.045Z,100196.81
2023-01-21T12:54:18.214Z,100195.38
2023-01-21T12:56:51.337Z,100201.47
2023-01-21T12:59:27.010Z,100208.88
2023-01-21T13:01:53.908Z,100208.25
2023-01-21T13:04:29.061Z,100221.69
2023-01-21T13:06:56.666Z,100218.97
2023-01-21T13:09:29.162Z,100231.19
2023-01-21T13:12:03.518Z,100228.78
2023-01-21T13:14:41.261Z,100230.16
2023-01-21T13:17:14.098Z,100233.28
2023-01-21T13:19:40.871Z,100245.00
2023-01-21T13:22:10.351Z,100236.09
2023-01-21T13:24:56.011Z,100249.91
2023-01-21T13:27:25.520Z,100256.53
2023-01-21T13:30:01.620Z,100247.72
2023-01-21T13:32:47.240Z,100262.25
2023-01-21T13:35:20.278Z,100260.87
2023-01-21T13:37:49.987Z,100256.12
2023-01-21T13:40:37.337Z,100265.72
2023-01-21T13:43:25.218Z,100253.97
2023-01-21T13:46:00.507Z,100255.41
2023-01-21T13:48:42.370Z,100262.84
2023-01-21T13:51:09.303Z,100274.25
2023-01-21T13:53:50.515Z,100269.31
2023-01-21T13:56:32.688Z,100284.53
2023-01-21T13:59:03.181Z,100275.94
2023-01-21T14:01:36.572Z,100286.66
2023-01-21T14:04:06.228Z,100293.75
2023-01-21T14:06:42.338Z,100288.47
2023-01-21T14:09:14.097Z,100287.44
2023-01-21T14:11:44.792Z,100291.84
2023-01-21T14:14:31.038Z,100291.56
2023-01-21T14:17:06.964Z,100296.38
2023-01-21T14:19:52.310Z,100286.19
2023-01-21T14:22:25.145Z,100295.78
2023-01-21T14:24:54.965Z,100308.69
2023-01-21T14:27:40.703Z,100304.09
2023-01-21T14:30:15.720Z,100298.22
2023-01-21T14:32:48.672Z,100304.69
2023-01-21T14:35:20.035Z,100305.03
2023-01-21T14:37:54.539Z,100313.50
2023-01-21T14:40:29.336Z,100300.84
2023-01-21T14:42:56.322Z,100308.25
2023-01-21T14:45:25.966Z,100311.25
2023-01-21T14:47:53.715Z,100312.97
2023-01-21T14:50:39.209Z,100308.00
2023-01-21T14:53:13.391Z,100307.75
2023-01-21T14:55:40.230Z,100306.84
2023-01-21T14:58:15.229Z,100320.81
2023-01-21T15:00:46.732Z,100318.09
2023-01-21T15:03:27.212Z,100316.50
2023-01-21T15:05:55.556Z,100318.66
2023-01-21T15:08:24.150Z,100316.19
2023-01-21T15:10:53.791Z,100322.72
2023-01-21T15:13:31.012Z,100320.62
2023-01-21T15:16:16.298Z,100318.25
2023-01-21T15:19:05.651Z,100329.22
2023-01-21T15:21:41.718Z,100328.63
2023-01-21T15:24:24.777Z,100328.59
2023-01-21T15:27:10.060Z,100329.19
2023-01-21T15:29:38.061Z,100346.31
2023-01-21T15:32:23.622Z,100328.63
2023-01-21T15:34:51.767Z,100338.87
2023-01-21T15:37:21.599Z,100347.75
2023-01-21T15:39:52.483Z,100351.59
2023-01-21T15:42:44.421Z,100349.03
2023-01-21T15:45:11.162Z,100351.28
2023-01-21T15:47:49.873Z,100356.31
2023-01-21T15:50:19.698Z,100358.66
2023-01-21T15:52:58.756Z,100363.06
2023-01-21T15:55:44.216Z,100360.41
2023-01-21T15:58:21.954Z,100372.41
2023-01-21T16:00:48.702Z,100367.41
2023-01-21T16:03:18.257Z,100371.00
2023-01-21T16:06:10.277Z,100370.22
2023-01-21T16:08:37.061Z,100379.66
2023-01-21T16:11:22.415Z,100374.72
2023-01-21T16:14:05.137Z,100385.94
2023-01-21T16:16:32.198Z,100382.63
2023-01-21T16:18:59.573Z,100392.78
2023-01-21T16:21:33.283Z,100386.13
2023-01-21T16:24:02.962Z,100386.84
2023-01-21T16:26:32.853Z,100380.09
2023-01-21T16:28:59.862Z,100393.00
2023-01-21T16:31:26.727Z,100394.28
2023-01-21T16:33:54.423Z,100395.03
2023-01-21T16:36:22.201Z,100391.59
2023-01-21T16:38:49.065Z,100401.75
2023-01-21T16:41:19.414Z,100400.88
2023-01-21T16:43:48.124Z,100402.87
2023-01-21T16:46:16.475Z,100407.84
2023-01-21T16:48:43.296Z,100401.47
2023-01-21T16:51:28.897Z,100410.22
2023-01-21T16:54:14.488Z,100410.44
2023-01-21T16:56:47.079Z,100411.22
2023-01-21T16:59:21.279Z,100409.84
2023-01-21T17:01:49.262Z,100411.66
2023-01-21T17:04:16.092Z,100427.72
2023-01-21T17:06:44.547Z,100423.75
2023-01-21T17:09:22.171Z,100428.97
2023-01-21T17:11:49.286Z,100426.50
2023-01-21T17:14:20.991Z,100433.72
2023-01-21T17:16:47.946Z,100432.09
2023-01-21T17:19:32.775Z,100435.91
2023-01-21T17:22:00.784Z,100443.41
2023-01-21T17:24:40.382Z,100440.34
2023-01-21T17:27:09.232Z,100449.28
2023-01-21T17:29:36.036Z,100456.53
2023-01-21T17:32:03.007Z,100455.78
2023-01-21T17:34:30.926Z,100451.06
2023-01-21T17:36:57.893Z,100450.69
2023-01-21T17:39:43.059Z,100460.00
2023-01-21T17:42:15.481Z,100462.09
2023-01-21T17:44:45.721Z,100455.25
2023-01-21T17:47:21.807Z,100458.75
2023-01-21T17:49:48.688Z,100461.22
2023-01-21T17:52:20.025Z,100455.69
2023-01-21T17:54:48.352Z,100462.56
2023-01-21T17:57:34.439Z,100457.78
2023-01-21T18:00:01.324Z,100456.91
2023-01-21T18:02:28.075Z,100463.63
2023-01-21T18:04:54.790Z,100463.22
2023-01-21T18:07:23.136Z,100464.59
2023-01-21T18:09:50.672Z,100465.84
2023-01-21T18:12:19.590Z,100466.63
2023-01-21T18:14:46.783Z,100479.44
2023-01-21T18:17:24.043Z,100481.91
2023-01-21T18:19:50.804Z,100474.59
2023-01-21T18:22:21.809Z,100480.41
2023-01-21T18:24:48.602Z,100480.31
2023-01-21T18:27:15.403Z,100492.84
2023-01-21T18:29:43.556Z,100490.41
2023-01-21T18:32:12.361Z,100500.22
2023-01-21T18:34:39.140Z,100500.81
2023-01-21T18:37:19.155Z,100500.34
2023-01-21T18:39:46.675Z,100493.66
2023-01-21T18:42:14.329Z,100503.91
2023-01-21T18:44:41.340Z,100503.31
2023-01-21T18:47:15.223Z,100507.69
2023-01-21T18:49:42.656Z,100508.91
2023-01-21T18:52:10.625Z,100501.72
2023-01-21T18:54:37.365Z,100501.13
2023-01-21T18:57:04.302Z,100489.06
2023-01-21T18:59:31.040Z,100492.19
2023-01-21T19:01:57.824Z,100489.03
2023-01-21T19:04:24.662Z,100496.00
2023-01-21T19:06:53.461Z,100495.94
2023-01-21T19:09:21.809Z,100487.78
2023-01-21T19:11:48.772Z,100502.81
2023-01-21T19:14:15.548Z,100499.19
2023-01-21T19:16:43.003Z,100501.72
2023-01-21T19:19:13.133Z,100512.84
2023-01-21T19:21:40.308Z,100511.87
2023-01-21T19:24:08.995Z,100516.69
2023-01-21T19:26:37.784Z,100518.06
2023-01-21T19:29:05.014Z,100523.56
2023-01-21T19:31:32.591Z,100520.06
2023-01-21T19:33:59.389Z,100521.03
2023-01-21T19:36:26.335Z,100521.94
2023-01-21T19:38:57.417Z,100521.53
2023-01-21T19:41:24.824Z,100527.56
2023-01-21T19:43:51.617Z,100530.47
2023-01-21T19:46:18.672Z,100540.62
2023-01-21T19:48:45.363Z,100528.13
2023-01-21T19:51:12.288Z,100531.72
2023-01-21T19:53:39.121Z,100542.09
2023-01-21T19:56:06.131Z,100533.69
2023-01-21T19:58:32.929Z,100541.53
2023-01-21T20:00:59.756Z,100535.31
2023-01-21T20:03:28.343Z,100536.13
2023-01-21T20:05:58.683Z,100537.94
2023-01-21T20:08:27.900Z,100536.00
2023-01-21T20:10:54.772Z,100535.66
2023-01-21T20:13:21.484Z,100543.13
2023-01-21T20:15:49.895Z,100548.94
2023-01-21T20:18:24.814Z,100547.62
2023-01-21T20:20:52.331Z,100543.06
2023-01-21T20:23:20.282Z,100551.66
2023-01-21T20:25:50.197Z,100553.56
2023-01-21T20:28:24.463Z,100551.53
2023-01-21T20:30:52.241Z,100561.34
2023-01-21T20:33:20.304Z,100560.22
2023-01-21T20:35:51.141Z,100559.84
2023-01-21T20:38:20.040Z,100556.78
2023-01-21T20:40:46.811Z,100556.16
2023-01-21T20:43:13.527Z,100561.06
2023-01-21T20:45:44.857Z,100555.09
2023-01-21T20:48:19.903Z,100545.78
2023-01-21T20:50:46.867Z,100543.22
2023-01-21T20:53:13.720Z,100541.59
2023-01-21T20:55:40.615Z,100542.94
2023-01-21T20:58:07.558Z,100541.19
2023-01-21T21:00:35.603Z,100556.50
2023-01-21T21:03:02.686Z,100552.34
2023-01-21T21:05:29.471Z,100560.47
2023-01-21T21:07:56.194Z,100569.34
2023-01-21T21:10:26.057Z,100573.69
2023-01-21T21:12:53.186Z,100565.22
2023-01-21T21:15:20.700Z,100561.84
2023-01-21T21:17:47.836Z,100568.41
2023-01-21T21:20:15.395Z,100565.94
2023-01-21T21:22:42.231Z,100562.41
2023-01-21T21:25:13.318Z,100566.84
2023-01-21T21:27:39.986Z,100573.75
2023-01-21T21:30:08.933Z,100581.94
2023-01-21T21:32:36.758Z,100582.25
2023-01-21T21:35:03.592Z,100588.94
2023-01-21T21:37:31.435Z,100581.94
2023-01-21T21:39:58.596Z,100571.69
2023-01-21T21:42:44.015Z,100565.38
2023-01-21T21:45:10.983Z,100569.63
2023-01-21T21:47:56.457Z,100585.69
2023-01-21T21:50:23.230Z,100572.69
2023-01-21T21:52:49.878Z,100580.84
2023-01-21T21:55:19.599Z,100568.91
2023-01-21T21:57:46.425Z,100564.12
2023-01-21T22:00:13.653Z,100559.59
2023-01-21T22:02:40.376Z,100555.19
2023-01-21T22:05:07.304Z,100557.34
2023-01-21T22:07:34.076Z,100547.00
2023-01-21T22:10:00.780Z,100548.31
2023-01-21T22:12:27.510Z,100550.13
2023-01-21T22:14:54.371Z,100559.44
2023-01-21T22:17:21.158Z,100562.78
2023-01-21T22:19:48.005Z,100567.03
2023-01-21T22:22:14.926Z,100556.72
2023-01-21T22:24:41.790Z,100564.81
2023-01-21T22:27:08.637Z,100568.50
2023-01-21T22:29:35.303Z,100575.78
2023-01-21T22:32:03.982Z,100571.44
2023-01-21T22:34:30.791Z,100571.78
2023-01-21T22:36:57.539Z,100565.97
2023-01-21T22:39:24.587Z,100560.16
2023-01-21T22:41:52.852Z,100562.87
2023-01-21T22:44:19.662Z,100554.31
2023-01-21T22:46:46.416Z,100563.03
2023-01-21T22:49:13.101Z,100559.63
2023-01-21T22:51:39.872Z,100567.28
2023-01-21T22:54:07.675Z,100556.94
2023-01-21T22:56:51.192Z,100568.22
2023-01-21T22:59:19.141Z,100577.28
2023-01-21T23:01:45.956Z,100572.34
2023-01-21T23:04:12.721Z,100583.56
2023-01-21T23:06:39.484Z,100588.66
2023-01-21T23:09:09.257Z,100578.75
2023-01-21T23:11:38.188Z,100578.25
2023-01-21T23:14:05.370Z,100572.63
2023-01-21T23:16:32.194Z,100576.63
2023-01-21T23:18:59.213Z,100575.00
2023-01-21T23:21:27.044Z,100573.38
2023-01-21T23:23:53.782Z,100568.53
2023-01-21T23:26:21.093Z,100575.69
2023-01-21T23:28:53.791Z,100575.44
2023-01-21T23:31:20.718Z,100561.56
2023-01-21T23:33:59.684Z,100574.78
2023-01-21T23:36:26.592Z,100563.47
2023-01-21T23:38:54.254Z,100563.00
2023-01-21T23:41:21.298Z,100562.06
2023-01-21T23:43:47.994Z,100571.91
2023-01-21T23:46:22.422Z,100573.25
2023-01-21T23:48:49.354Z,100575.94
2023-01-21T23:51:17.009Z,100583.94
2023-01-21T23:53:43.703Z,100579.44
2023-01-21T23:56:15.578Z,100591.78
2023-01-21T23:58:42.370Z,100585.00
